createdAt,value
2022-07-25T00:01:32.812Z,39.66
2022-07-25T00:03:59.630Z,39.64
2022-07-25T00:06:26.228Z,39.52
2022-07-25T00:08:52.775Z,39.68
2022-07-25T00:11:19.377Z,39.56
2022-07-25T00:13:45.842Z,39.50
2022-07-25T00:16:12.410Z,39.46
2022-07-25T00:18:38.898Z,39.67
2022-07-25T00:21:05.624Z,39.45
2022-07-25T00:23:32.136Z,39.52
2022-07-25T00:25:58.653Z,39.58
2022-07-25T00:28:25.086Z,39.30
2022-07-25T00:30:51.573Z,39.63
2022-07-25T00:33:18.133Z,39.56
2022-07-25T00:35:44.855Z,39.76
2022-07-25T00:38:11.390Z,39.33
2022-07-25T00:40:37.967Z,39.55
2022-07-25T00:43:04.852Z,39.67
2022-07-25T00:45:31.503Z,39.55
2022-07-25T00:47:58.104Z,39.51
2022-07-25T00:50:24.728Z,39.75
2022-07-25T00:52:52.144Z,39.46
2022-07-25T00:55:19.540Z,39.59
2022-07-25T00:57:45.997Z,39.37
2022-07-25T01:00:14.482Z,39.60
2022-07-25T01:02:42.244Z,39.37
2022-07-25T01:05:09.317Z,39.40
2022-07-25T01:07:39.090Z,39.47
2022-07-25T01:10:07.484Z,39.47
2022-07-25T01:12:45.277Z,39.26
2022-07-25T01:15:11.757Z,39.21
2022-07-25T01:17:38.227Z,39.20
2022-07-25T01:20:05.186Z,39.62
2022-07-25T01:22:31.671Z,39.55
2022-07-25T01:24:58.647Z,39.41
2022-07-25T01:27:25.102Z,39.21
2022-07-25T01:29:51.597Z,39.17
2022-07-25T01:32:18.056Z,39.67
2022-07-25T01:34:44.516Z,39.48
2022-07-25T01:37:11.012Z,39.31
2022-07-25T01:39:37.519Z,39.48
2022-07-25T01:42:04.282Z,39.38
2022-07-25T01:44:30.738Z,39.20
2022-07-25T01:46:57.200Z,39.46
2022-07-25T01:49:25.655Z,39.43
2022-07-25T01:51:52.693Z,39.58
2022-07-25T01:54:19.157Z,39.31
2022-07-25T01:56:48.410Z,39.55
2022-07-25T01:59:15.232Z,39.50
2022-07-25T02:01:41.743Z,39.50
2022-07-25T02:04:08.614Z,39.44
2022-07-25T02:06:35.835Z,39.46
2022-07-25T02:09:04.276Z,39.32
2022-07-25T02:11:30.902Z,39.33
2022-07-25T02:13:57.387Z,39.24
2022-07-25T02:16:29.167Z,39.27
2022-07-25T02:18:56.204Z,39.47
2022-07-25T02:21:22.653Z,39.35
2022-07-25T02:23:49.107Z,39.38
2022-07-25T02:26:15.583Z,39.47
2022-07-25T02:28:42.168Z,39.22
2022-07-25T02:31:09.239Z,39.53
2022-07-25T02:33:36.196Z,39.43
2022-07-25T02:36:02.678Z,39.54
2022-07-25T02:38:29.291Z,39.62
2022-07-25T02:40:55.755Z,39.80
2022-07-25T02:43:22.461Z,39.35
2022-07-25T02:45:49.078Z,39.59
2022-07-25T02:48:15.623Z,39.58
2022-07-25T02:50:42.163Z,39.53
2022-07-25T02:53:08.692Z,39.81
2022-07-25T02:55:35.146Z,39.56
2022-07-25T02:58:01.681Z,39.54
2022-07-25T03:00:29.147Z,39.49
2022-07-25T03:02:55.962Z,39.62
2022-07-25T03:05:22.520Z,39.45
2022-07-25T03:07:49.032Z,39.73
2022-07-25T03:10:15.574Z,39.69
2022-07-25T03:12:44.104Z,39.67
2022-07-25T03:15:13.082Z,39.63
2022-07-25T03:17:39.922Z,39.67
2022-07-25T03:20:07.975Z,39.85
2022-07-25T03:22:35.127Z,39.80
2022-07-25T03:25:01.819Z,39.79
2022-07-25T03:27:28.525Z,39.60
2022-07-25T03:29:54.973Z,40.06
2022-07-25T03:32:21.483Z,39.84
2022-07-25T03:34:47.915Z,39.91
2022-07-25T03:37:14.507Z,40.06
2022-07-25T03:39:41.054Z,39.63
2022-07-25T03:42:07.564Z,39.84
2022-07-25T03:44:34.095Z,39.88
2022-07-25T03:47:00.557Z,39.70
2022-07-25T03:49:27.050Z,40.08
2022-07-25T03:51:53.476Z,40.07
2022-07-25T03:54:19.991Z,40.28
2022-07-25T03:56:48.894Z,40.11
2022-07-25T03:59:18.485Z,40.05
2022-07-25T04:01:46.884Z,40.03
2022-07-25T04:04:14.196Z,39.81
2022-07-25T04:06:41.002Z,40.11
2022-07-25T04:09:09.024Z,40.17
2022-07-25T04:11:36.011Z,40.19
2022-07-25T04:14:02.973Z,40.08
2022-07-25T04:16:29.797Z,40.43
2022-07-25T04:18:57.311Z,40.42
2022-07-25T04:21:24.800Z,40.20
2022-07-25T04:23:51.990Z,40.39
2022-07-25T04:26:19.175Z,40.46
2022-07-25T04:28:45.953Z,40.22
2022-07-25T04:31:12.536Z,40.31
2022-07-25T04:33:40.662Z,40.15
2022-07-25T04:36:07.421Z,40.54
2022-07-25T04:38:34.533Z,40.28
2022-07-25T04:41:01.013Z,40.45
2022-07-25T04:43:27.532Z,40.29
2022-07-25T04:45:54.058Z,40.75
2022-07-25T04:48:20.840Z,40.54
2022-07-25T04:50:47.374Z,40.40
2022-07-25T04:53:13.837Z,40.32
2022-07-25T04:55:40.789Z,40.60
2022-07-25T04:58:07.248Z,40.42
2022-07-25T05:00:34.193Z,40.54
2022-07-25T05:03:00.715Z,40.45
2022-07-25T05:05:27.267Z,40.74
2022-07-25T05:07:58.882Z,40.71
2022-07-25T05:10:28.166Z,40.55
2022-07-25T05:12:54.968Z,40.50
2022-07-25T05:15:21.762Z,40.50
2022-07-25T05:17:48.424Z,40.43
2022-07-25T05:20:14.974Z,40.84
2022-07-25T05:22:42.425Z,40.99
2022-07-25T05:25:11.012Z,40.76
2022-07-25T05:27:38.512Z,40.68
2022-07-25T05:30:07.559Z,40.76
2022-07-25T05:32:34.492Z,40.61
2022-07-25T05:35:01.067Z,40.81
2022-07-25T05:37:27.667Z,40.62
2022-07-25T05:39:54.165Z,40.89
2022-07-25T05:42:20.669Z,40.93
2022-07-25T05:44:47.131Z,41.14
2022-07-25T05:47:13.839Z,40.80
2022-07-25T05:49:40.379Z,40.85
2022-07-25T05:52:12.459Z,40.75
2022-07-25T05:54:39.639Z,41.08
2022-07-25T05:57:06.108Z,41.15
2022-07-25T05:59:32.706Z,40.91
2022-07-25T06:02:02.063Z,40.96
2022-07-25T06:04:28.662Z,41.27
2022-07-25T06:06:55.167Z,40.83
2022-07-25T06:09:22.096Z,41.11
2022-07-25T06:12:00.341Z,41.24
2022-07-25T06:14:28.787Z,41.28
2022-07-25T06:16:55.488Z,41.03
2022-07-25T06:19:22.010Z,41.19
2022-07-25T06:21:48.536Z,41.22
2022-07-25T06:24:15.182Z,41.07
2022-07-25T06:26:42.775Z,41.20
2022-07-25T06:29:09.304Z,41.13
2022-07-25T06:31:35.808Z,41.07
2022-07-25T06:34:02.364Z,41.29
2022-07-25T06:36:32.078Z,41.16
2022-07-25T06:38:59.724Z,41.43
2022-07-25T06:41:26.210Z,41.14
2022-07-25T06:43:52.770Z,41.26
2022-07-25T06:46:19.309Z,41.34
2022-07-25T06:48:45.907Z,41.44
2022-07-25T06:51:12.404Z,41.31
2022-07-25T06:53:39.231Z,41.33
2022-07-25T06:56:06.139Z,41.25
2022-07-25T06:58:32.661Z,41.19
2022-07-25T07:01:01.338Z,41.58
2022-07-25T07:03:28.468Z,41.20
2022-07-25T07:05:55.394Z,41.23
2022-07-25T07:08:21.997Z,41.35
2022-07-25T07:10:48.538Z,41.23
2022-07-25T07:13:15.413Z,41.20
2022-07-25T07:15:48.245Z,41.10
2022-07-25T07:18:14.840Z,41.17
2022-07-25T07:20:41.323Z,41.10
2022-07-25T07:23:07.789Z,40.97
2022-07-25T07:25:35.416Z,41.02
2022-07-25T07:28:02.701Z,41.07
2022-07-25T07:30:49.251Z,40.94
2022-07-25T07:33:16.017Z,41.17
2022-07-25T07:35:45.831Z,41.03
2022-07-25T07:38:12.362Z,40.92
2022-07-25T07:40:38.819Z,41.08
2022-07-25T07:43:06.311Z,40.93
2022-07-25T07:45:33.047Z,40.86
2022-07-25T07:47:59.525Z,40.91
2022-07-25T07:50:27.722Z,40.95
2022-07-25T07:52:55.914Z,40.93
2022-07-25T07:55:41.893Z,40.87
2022-07-25T07:58:08.538Z,41.03
2022-07-25T08:00:39.178Z,41.03
2022-07-25T08:03:08.675Z,40.97
2022-07-25T08:05:42.667Z,40.69
2022-07-25T08:08:11.578Z,40.87
2022-07-25T08:10:41.335Z,41.12
2022-07-25T08:13:21.327Z,41.00
2022-07-25T08:15:53.430Z,40.86
2022-07-25T08:18:20.333Z,41.18
2022-07-25T08:20:47.641Z,41.23
2022-07-25T08:23:14.459Z,41.49
2022-07-25T08:25:41.635Z,41.54
2022-07-25T08:28:08.307Z,41.63
2022-07-25T08:30:36.341Z,41.89
2022-07-25T08:33:05.588Z,41.89
2022-07-25T08:35:33.784Z,41.01
2022-07-25T08:38:01.175Z,41.12
2022-07-25T08:40:29.669Z,41.52
2022-07-25T08:42:56.689Z,41.44
2022-07-25T08:45:23.362Z,41.33
2022-07-25T08:47:51.692Z,41.16
2022-07-25T08:50:20.535Z,41.81
2022-07-25T08:52:48.624Z,42.03
2022-07-25T08:55:20.041Z,41.80
2022-07-25T08:57:53.052Z,41.60
2022-07-25T09:00:23.337Z,41.64
2022-07-25T09:03:03.684Z,41.90
2022-07-25T09:05:32.251Z,41.82
2022-07-25T09:08:13.444Z,42.07
2022-07-25T09:10:45.293Z,41.70
2022-07-25T09:13:16.746Z,42.27
2022-07-25T09:15:49.537Z,43.00
2022-07-25T09:18:22.055Z,42.42
2022-07-25T09:20:58.692Z,42.94
2022-07-25T09:23:38.796Z,42.80
2022-07-25T09:26:16.365Z,42.82
2022-07-25T09:28:47.924Z,42.93
2022-07-25T09:31:16.272Z,42.71
2022-07-25T09:33:48.914Z,42.94
2022-07-25T09:36:15.928Z,42.85
2022-07-25T09:39:01.726Z,42.98
2022-07-25T09:41:39.497Z,42.90
2022-07-25T09:44:17.600Z,42.48
2022-07-25T09:46:44.750Z,42.19
2022-07-25T09:49:14.549Z,42.16
2022-07-25T09:51:42.708Z,42.46
2022-07-25T09:54:09.940Z,42.54
2022-07-25T09:56:36.748Z,42.86
2022-07-25T09:59:05.064Z,42.87
2022-07-25T10:01:37.583Z,42.67
2022-07-25T10:04:14.529Z,42.12
2022-07-25T10:06:47.796Z,43.21
2022-07-25T10:09:15.060Z,42.89
2022-07-25T10:12:01.640Z,42.89
2022-07-25T10:14:28.142Z,42.86
2022-07-25T10:16:54.709Z,42.91
2022-07-25T10:19:47.451Z,43.11
2022-07-25T10:22:16.719Z,42.97
2022-07-25T10:24:47.507Z,42.89
2022-07-25T10:27:21.713Z,42.70
2022-07-25T10:29:54.268Z,42.47
2022-07-25T10:32:26.113Z,42.49
2022-07-25T10:34:54.228Z,42.96
2022-07-25T10:37:29.224Z,42.35
2022-07-25T10:39:56.547Z,42.41
2022-07-25T10:42:23.795Z,42.59
2022-07-25T10:44:54.187Z,42.46
2022-07-25T10:47:23.830Z,43.21
2022-07-25T10:50:16.843Z,42.45
2022-07-25T10:52:44.383Z,43.06
2022-07-25T10:55:10.906Z,42.62
2022-07-25T10:57:49.683Z,42.71
2022-07-25T11:00:21.668Z,42.84
2022-07-25T11:02:50.116Z,43.09
2022-07-25T11:05:16.722Z,42.57
2022-07-25T11:08:18.949Z,42.66
2022-07-25T11:10:38.804Z,42.66
2022-07-25T11:13:05.760Z,42.59
2022-07-25T11:15:32.484Z,42.88
2022-07-25T11:17:59.032Z,42.83
2022-07-25T11:20:25.570Z,42.93
2022-07-25T11:22:54.473Z,42.52
2022-07-25T11:25:23.179Z,43.00
2022-07-25T11:27:56.594Z,42.78
2022-07-25T11:30:23.196Z,42.77
2022-07-25T11:33:01.670Z,42.94
2022-07-25T11:35:30.935Z,42.71
2022-07-25T11:38:02.945Z,42.85
2022-07-25T11:40:32.523Z,42.82
2022-07-25T11:42:59.807Z,42.98
2022-07-25T11:45:27.838Z,43.04
2022-07-25T11:48:05.444Z,43.54
2022-07-25T11:50:34.728Z,43.89
2022-07-25T11:53:03.993Z,43.24
2022-07-25T11:55:32.824Z,43.36
2022-07-25T11:58:01.572Z,43.69
2022-07-25T12:00:28.955Z,43.44
2022-07-25T12:03:07.232Z,43.43
2022-07-25T12:05:33.925Z,43.68
2022-07-25T12:08:10.332Z,43.49
2022-07-25T12:10:37.842Z,43.27
2022-07-25T12:13:06.271Z,43.18
2022-07-25T12:15:41.736Z,43.13
2022-07-25T12:18:10.524Z,42.88
2022-07-25T12:20:43.067Z,43.04
2022-07-25T12:23:11.637Z,43.28
2022-07-25T12:25:40.693Z,43.58
2022-07-25T12:28:08.324Z,43.33
2022-07-25T12:30:35.842Z,43.55
2022-07-25T12:33:02.316Z,43.76
2022-07-25T12:35:29.272Z,43.32
2022-07-25T12:37:56.039Z,43.62
2022-07-25T12:40:22.683Z,43.32
2022-07-25T12:42:50.132Z,43.39
2022-07-25T12:45:17.792Z,43.29
2022-07-25T12:47:46.373Z,43.47
2022-07-25T12:50:13.738Z,43.47
2022-07-25T12:52:41.650Z,43.81
2022-07-25T12:55:10.427Z,43.79
2022-07-25T12:57:37.284Z,43.89
2022-07-25T13:00:10.128Z,43.57
2022-07-25T13:02:37.556Z,43.79
2022-07-25T13:05:05.091Z,44.00
2022-07-25T13:07:33.150Z,44.29
2022-07-25T13:10:00.586Z,44.57
2022-07-25T13:12:27.207Z,44.83
2022-07-25T13:14:53.666Z,44.31
2022-07-25T13:17:24.940Z,44.43
2022-07-25T13:19:54.179Z,44.83
2022-07-25T13:22:20.656Z,44.50
2022-07-25T13:24:47.122Z,44.51
2022-07-25T13:27:13.609Z,44.66
2022-07-25T13:29:40.261Z,44.65
2022-07-25T13:32:07.240Z,44.65
2022-07-25T13:34:33.759Z,44.69
2022-07-25T13:37:00.217Z,44.84
2022-07-25T13:39:27.156Z,45.07
2022-07-25T13:41:53.831Z,45.05
2022-07-25T13:44:20.283Z,44.84
2022-07-25T13:46:49.944Z,45.87
2022-07-25T13:49:17.484Z,45.39
2022-07-25T13:51:45.474Z,45.19
2022-07-25T13:54:12.819Z,46.21
2022-07-25T13:56:40.557Z,46.60
2022-07-25T13:59:07.550Z,46.88
2022-07-25T14:01:34.507Z,46.90
2022-07-25T14:04:01.254Z,46.71
2022-07-25T14:06:27.869Z,46.88
2022-07-25T14:08:54.399Z,47.05
2022-07-25T14:11:20.886Z,46.95
2022-07-25T14:13:47.801Z,46.93
2022-07-25T14:16:16.545Z,46.61
2022-07-25T14:18:43.076Z,47.16
2022-07-25T14:21:09.516Z,47.31
2022-07-25T14:23:35.954Z,47.00
2022-07-25T14:26:02.486Z,46.81
2022-07-25T14:28:29.699Z,46.83
2022-07-25T14:30:56.594Z,46.93
2022-07-25T14:33:23.086Z,46.94
2022-07-25T14:35:49.564Z,47.15
2022-07-25T14:38:16.038Z,47.18
2022-07-25T14:40:42.988Z,47.69
2022-07-25T14:43:09.419Z,47.63
2022-07-25T14:45:37.077Z,47.75
2022-07-25T14:48:05.992Z,47.79
2022-07-25T14:50:32.623Z,47.90
2022-07-25T14:52:59.123Z,48.33
2022-07-25T14:55:25.770Z,48.56
2022-07-25T14:57:52.488Z,48.68
2022-07-25T15:00:18.963Z,48.89
2022-07-25T15:02:45.524Z,49.28
2022-07-25T15:05:12.096Z,49.81
2022-07-25T15:07:38.672Z,49.82
2022-07-25T15:10:05.936Z,49.65
2022-07-25T15:12:32.456Z,49.28
2022-07-25T15:14:58.934Z,49.41
2022-07-25T15:17:25.426Z,49.02
2022-07-25T15:19:51.923Z,48.80
2022-07-25T15:22:18.372Z,48.70
2022-07-25T15:25:21.391Z,48.58
2022-07-25T15:27:31.766Z,47.87
2022-07-25T15:29:58.284Z,47.65
2022-07-25T15:32:24.854Z,47.25
2022-07-25T15:34:51.524Z,47.75
2022-07-25T15:37:17.999Z,47.62
2022-07-25T15:39:45.352Z,47.52
2022-07-25T15:42:12.217Z,47.23
2022-07-25T15:44:38.747Z,46.80
2022-07-25T15:47:06.976Z,47.01
2022-07-25T15:49:33.678Z,47.10
2022-07-25T15:52:00.226Z,46.74
2022-07-25T15:54:29.497Z,47.35
2022-07-25T15:56:56.444Z,47.36
2022-07-25T15:59:23.006Z,47.11
2022-07-25T16:01:49.483Z,46.85
2022-07-25T16:04:16.005Z,46.31
2022-07-25T16:06:42.622Z,45.96
2022-07-25T16:09:09.430Z,44.60
2022-07-25T16:11:38.241Z,44.51
2022-07-25T16:14:05.438Z,44.75
2022-07-25T16:16:32.043Z,44.44
2022-07-25T16:18:58.640Z,44.00
2022-07-25T16:21:25.135Z,44.09
2022-07-25T16:23:51.581Z,43.72
2022-07-25T16:26:18.048Z,43.67
2022-07-25T16:28:46.379Z,43.14
2022-07-25T16:31:13.016Z,42.87
2022-07-25T16:33:39.568Z,42.01
2022-07-25T16:36:06.395Z,42.44
2022-07-25T16:38:32.927Z,42.20
2022-07-25T16:40:59.506Z,42.01
2022-07-25T16:43:26.011Z,42.13
2022-07-25T16:45:52.468Z,42.15
2022-07-25T16:48:19.016Z,42.02
2022-07-25T16:50:47.634Z,41.66
2022-07-25T16:53:14.069Z,41.25
2022-07-25T16:55:40.555Z,40.97
2022-07-25T16:58:07.096Z,41.17
2022-07-25T17:00:33.557Z,41.41
2022-07-25T17:03:01.136Z,41.50
2022-07-25T17:05:27.704Z,41.44
2022-07-25T17:07:59.405Z,41.64
2022-07-25T17:10:26.659Z,41.70
2022-07-25T17:12:53.492Z,41.70
2022-07-25T17:15:20.730Z,41.17
2022-07-25T17:17:47.369Z,41.32
2022-07-25T17:20:14.468Z,41.32
2022-07-25T17:22:40.938Z,41.34
2022-07-25T17:25:07.763Z,41.01
2022-07-25T17:27:34.966Z,41.03
2022-07-25T17:30:01.758Z,41.26
2022-07-25T17:32:30.094Z,41.01
2022-07-25T17:34:57.311Z,41.12
2022-07-25T17:37:24.337Z,41.06
2022-07-25T17:39:50.976Z,40.85
2022-07-25T17:42:22.233Z,42.00
2022-07-25T17:44:50.249Z,41.76
2022-07-25T17:47:17.403Z,41.68
2022-07-25T17:49:44.569Z,41.55
2022-07-25T17:52:15.565Z,41.80
2022-07-25T17:54:42.709Z,42.01
2022-07-25T17:57:09.668Z,42.11
2022-07-25T17:59:36.402Z,42.04
2022-07-25T18:02:03.099Z,41.99
2022-07-25T18:04:29.841Z,42.10
2022-07-25T18:06:56.416Z,41.98
2022-07-25T18:09:24.141Z,42.37
2022-07-25T18:11:51.064Z,42.14
2022-07-25T18:14:17.510Z,42.22
2022-07-25T18:16:45.342Z,42.24
2022-07-25T18:19:12.186Z,42.03
2022-07-25T18:21:38.829Z,42.08
2022-07-25T18:24:06.421Z,42.49
2022-07-25T18:26:34.139Z,42.43
2022-07-25T18:29:00.608Z,42.21
2022-07-25T18:31:27.258Z,42.41
2022-07-25T18:33:53.772Z,42.26
2022-07-25T18:36:20.545Z,42.30
2022-07-25T18:38:48.411Z,42.47
2022-07-25T18:41:30.730Z,42.23
2022-07-25T18:43:57.483Z,42.63
2022-07-25T18:46:24.162Z,42.50
2022-07-25T18:48:51.622Z,42.28
2022-07-25T18:51:18.113Z,42.38
2022-07-25T18:53:48.365Z,42.29
2022-07-25T18:56:16.068Z,42.35
2022-07-25T18:58:43.019Z,42.63
2022-07-25T19:01:09.746Z,42.73
2022-07-25T19:03:37.649Z,42.46
2022-07-25T19:06:05.156Z,42.56
2022-07-25T19:08:32.686Z,42.41
2022-07-25T19:10:59.339Z,42.44
2022-07-25T19:13:48.209Z,42.60
2022-07-25T19:16:12.515Z,42.43
2022-07-25T19:18:39.583Z,42.52
2022-07-25T19:21:06.560Z,42.46
2022-07-25T19:23:33.172Z,42.25
2022-07-25T19:26:01.364Z,42.35
2022-07-25T19:28:28.935Z,42.26
2022-07-25T19:30:56.710Z,42.20
2022-07-25T19:33:23.931Z,42.19
2022-07-25T19:35:50.440Z,41.94
2022-07-25T19:38:16.995Z,41.95
2022-07-25T19:40:43.504Z,41.74
2022-07-25T19:43:10.011Z,42.11
2022-07-25T19:45:38.760Z,41.93
2022-07-25T19:48:07.027Z,42.07
2022-07-25T19:50:33.661Z,41.92
2022-07-25T19:53:01.413Z,41.75
2022-07-25T19:55:28.111Z,41.98
2022-07-25T19:57:54.560Z,41.97
2022-07-25T20:00:21.244Z,41.73
2022-07-25T20:02:47.743Z,41.57
2022-07-25T20:05:15.237Z,41.78
2022-07-25T20:07:41.728Z,41.78
2022-07-25T20:10:09.056Z,41.59
2022-07-25T20:12:36.283Z,41.53
2022-07-25T20:15:03.129Z,41.49
2022-07-25T20:17:29.599Z,41.53
2022-07-25T20:19:56.195Z,41.50
2022-07-25T20:22:22.755Z,41.57
2022-07-25T20:24:49.244Z,41.69
2022-07-25T20:27:15.703Z,41.48
2022-07-25T20:29:42.387Z,41.35
2022-07-25T20:32:08.902Z,41.76
2022-07-25T20:34:35.380Z,41.43
2022-07-25T20:37:01.882Z,41.77
2022-07-25T20:39:28.812Z,41.39
2022-07-25T20:41:55.452Z,41.56
2022-07-25T20:44:22.071Z,41.75
2022-07-25T20:46:48.540Z,41.61
2022-07-25T20:49:14.996Z,41.69
2022-07-25T20:51:41.522Z,41.80
2022-07-25T20:54:08.361Z,41.42
2022-07-25T20:56:35.027Z,41.60
2022-07-25T20:59:01.576Z,41.38
2022-07-25T21:01:28.166Z,41.52
2022-07-25T21:03:54.736Z,41.70
2022-07-25T21:06:21.299Z,41.64
2022-07-25T21:08:53.866Z,41.60
2022-07-25T21:11:20.529Z,41.46
2022-07-25T21:13:47.098Z,41.54
2022-07-25T21:16:13.747Z,41.63
2022-07-25T21:18:40.329Z,41.68
2022-07-25T21:21:11.960Z,41.65
2022-07-25T21:23:40.800Z,41.54
2022-07-25T21:26:07.257Z,41.83
2022-07-25T21:28:33.779Z,41.77
2022-07-25T21:31:00.239Z,41.47
2022-07-25T21:33:26.680Z,41.50
2022-07-25T21:35:53.825Z,41.58
2022-07-25T21:38:26.109Z,41.74
2022-07-25T21:40:54.248Z,41.78
2022-07-25T21:43:20.751Z,41.58
2022-07-25T21:45:47.271Z,42.04
2022-07-25T21:48:13.755Z,41.68
2022-07-25T21:50:43.933Z,41.67
2022-07-25T21:53:12.968Z,41.63
2022-07-25T21:55:40.551Z,41.67
2022-07-25T21:58:07.760Z,41.69
2022-07-25T22:00:38.853Z,41.52
2022-07-25T22:03:10.517Z,41.41
2022-07-25T22:05:37.020Z,41.45
2022-07-25T22:08:03.635Z,41.57
2022-07-25T22:10:30.198Z,41.81
2022-07-25T22:12:56.746Z,41.86
2022-07-25T22:15:23.445Z,41.74
2022-07-25T22:17:50.182Z,41.62
2022-07-25T22:20:18.178Z,41.81
2022-07-25T22:22:46.234Z,41.41
2022-07-25T22:25:12.852Z,41.76
2022-07-25T22:27:39.295Z,41.77
2022-07-25T22:30:06.509Z,41.65
2022-07-25T22:32:33.095Z,41.59
2022-07-25T22:34:59.531Z,41.34
2022-07-25T22:37:26.002Z,41.64
2022-07-25T22:39:57.698Z,41.73
2022-07-25T22:42:27.102Z,41.59
2022-07-25T22:44:53.635Z,41.58
2022-07-25T22:47:20.480Z,41.77
2022-07-25T22:49:47.251Z,41.65
2022-07-25T22:52:13.764Z,41.34
2022-07-25T22:54:40.466Z,41.73
2022-07-25T22:57:06.915Z,41.63
2022-07-25T22:59:33.366Z,41.83
2022-07-25T23:01:59.836Z,41.79
2022-07-25T23:04:26.512Z,41.64
2022-07-25T23:06:53.044Z,41.41
2022-07-25T23:09:19.586Z,41.65
2022-07-25T23:11:46.184Z,41.75
2022-07-25T23:14:12.818Z,41.48
2022-07-25T23:16:39.410Z,41.56
2022-07-25T23:19:06.279Z,41.35
2022-07-25T23:21:33.054Z,41.43
2022-07-25T23:24:00.052Z,41.56
2022-07-25T23:26:27.729Z,41.46
2022-07-25T23:28:54.342Z,41.38
2022-07-25T23:31:20.948Z,41.60
2022-07-25T23:33:47.445Z,41.41
2022-07-25T23:36:13.868Z,41.49
2022-07-25T23:38:40.350Z,41.58
2022-07-25T23:41:06.793Z,41.27
2022-07-25T23:43:56.868Z,41.54
2022-07-25T23:46:21.558Z,41.31
2022-07-25T23:48:54.142Z,41.40
2022-07-25T23:51:20.731Z,41.27
2022-07-25T23:53:47.378Z,41.48
2022-07-25T23:56:18.615Z,41.49
2022-07-25T23:58:49.023Z,41.43
